sensor_id;sensor_type;location;lat;lon;timestamp;P1;durP1;ratioP1;P2;durP2;ratioP2
54368;SDS011;40266;52.434;17.056;2023-08-01T00:01:58;6.50;;;3.30;;
54368;SDS011;40266;52.434;17.056;2023-08-01T00:04:41;7.60;;;3.50;;
54368;SDS011;40266;52.434;17.056;2023-08-01T00:07:25;8.20;;;3.70;;
54368;SDS011;40266;52.434;17.056;2023-08-01T00:10:09;7.40;;;3.60;;
54368;SDS011;40266;52.434;17.056;2023-08-01T00:12:52;8.70;;;3.50;;
54368;SDS011;40266;52.434;17.056;2023-08-01T00:15:35;5.50;;;3.30;;
54368;SDS011;40266;52.434;17.056;2023-08-01T00:18:18;6.20;;;3.50;;
54368;SDS011;40266;52.434;17.056;2023-08-01T00:21:01;5.70;;;3.40;;
54368;SDS011;40266;52.434;17.056;2023-08-01T00:23:45;5.70;;;3.60;;
54368;SDS011;40266;52.434;17.056;2023-08-01T00:26:28;6.40;;;3.50;;
54368;SDS011;40266;52.434;17.056;2023-08-01T00:29:10;7.80;;;3.70;;
54368;SDS011;40266;52.434;17.056;2023-08-01T00:31:53;7.40;;;3.10;;
54368;SDS011;40266;52.434;17.056;2023-08-01T00:34:36;8.70;;;3.50;;
54368;SDS011;40266;52.434;17.056;2023-08-01T00:37:19;7.60;;;3.50;;
54368;SDS011;40266;52.434;17.056;2023-08-01T00:40:02;7.20;;;3.80;;
54368;SDS011;40266;52.434;17.056;2023-08-01T00:42:46;7.50;;;3.50;;
54368;SDS011;40266;52.434;17.056;2023-08-01T00:45:29;11.10;;;3.90;;
54368;SDS011;40266;52.434;17.056;2023-08-01T00:48:12;7.00;;;3.20;;
54368;SDS011;40266;52.434;17.056;2023-08-01T00:50:57;9.40;;;3.20;;
54368;SDS011;40266;52.434;17.056;2023-08-01T00:53:42;6.70;;;3.10;;
54368;SDS011;40266;52.434;17.056;2023-08-01T00:56:25;5.30;;;3.30;;
54368;SDS011;40266;52.434;17.056;2023-08-01T00:59:07;5.60;;;3.20;;
54368;SDS011;40266;52.434;17.056;2023-08-01T01:01:50;8.30;;;3.80;;
54368;SDS011;40266;52.434;17.056;2023-08-01T01:04:34;8.80;;;3.40;;
54368;SDS011;40266;52.434;17.056;2023-08-01T01:07:17;8.40;;;3.20;;
54368;SDS011;40266;52.434;17.056;2023-08-01T01:10:02;4.50;;;3.00;;
54368;SDS011;40266;52.434;17.056;2023-08-01T01:12:45;9.90;;;3.50;;
54368;SDS011;40266;52.434;17.056;2023-08-01T01:15:31;11.50;;;4.10;;
54368;SDS011;40266;52.434;17.056;2023-08-01T01:18:15;7.40;;;3.40;;
54368;SDS011;40266;52.434;17.056;2023-08-01T01:20:58;7.40;;;3.20;;
54368;SDS011;40266;52.434;17.056;2023-08-01T01:23:41;7.10;;;3.30;;
54368;SDS011;40266;52.434;17.056;2023-08-01T01:26:25;8.00;;;3.20;;
54368;SDS011;40266;52.434;17.056;2023-08-01T01:29:10;8.60;;;3.50;;
54368;SDS011;40266;52.434;17.056;2023-08-01T01:31:54;7.40;;;3.40;;
54368;SDS011;40266;52.434;17.056;2023-08-01T01:34:38;6.20;;;3.40;;
54368;SDS011;40266;52.434;17.056;2023-08-01T01:37:21;7.40;;;3.20;;
54368;SDS011;40266;52.434;17.056;2023-08-01T01:40:04;4.80;;;2.90;;
54368;SDS011;40266;52.434;17.056;2023-08-01T01:42:48;11.50;;;3.60;;
54368;SDS011;40266;52.434;17.056;2023-08-01T01:45:32;5.50;;;3.00;;
54368;SDS011;40266;52.434;17.056;2023-08-01T01:48:16;5.10;;;2.90;;
54368;SDS011;40266;52.434;17.056;2023-08-01T01:50:59;11.00;;;3.50;;
54368;SDS011;40266;52.434;17.056;2023-08-01T01:53:43;4.20;;;2.90;;
54368;SDS011;40266;52.434;17.056;2023-08-01T01:56:26;8.40;;;3.20;;
54368;SDS011;40266;52.434;17.056;2023-08-01T01:59:09;7.90;;;3.10;;
54368;SDS011;40266;52.434;17.056;2023-08-01T02:01:52;7.50;;;3.40;;
54368;SDS011;40266;52.434;17.056;2023-08-01T02:04:35;6.00;;;3.20;;
54368;SDS011;40266;52.434;17.056;2023-08-01T02:07:18;6.30;;;2.90;;
54368;SDS011;40266;52.434;17.056;2023-08-01T02:10:02;5.10;;;3.20;;
54368;SDS011;40266;52.434;17.056;2023-08-01T02:12:47;7.90;;;3.50;;
54368;SDS011;40266;52.434;17.056;2023-08-01T02:15:31;8.40;;;4.30;;
54368;SDS011;40266;52.434;17.056;2023-08-01T02:18:14;6.80;;;3.40;;
54368;SDS011;40266;52.434;17.056;2023-08-01T02:20:58;7.90;;;3.70;;
54368;SDS011;40266;52.434;17.056;2023-08-01T02:23:41;11.00;;;3.90;;
54368;SDS011;40266;52.434;17.056;2023-08-01T02:26:24;9.10;;;3.70;;
54368;SDS011;40266;52.434;17.056;2023-08-01T02:29:07;7.90;;;3.50;;
54368;SDS011;40266;52.434;17.056;2023-08-01T02:31:50;10.40;;;3.80;;
54368;SDS011;40266;52.434;17.056;2023-08-01T02:34:34;11.30;;;3.90;;
54368;SDS011;40266;52.434;17.056;2023-08-01T02:37:18;8.20;;;4.20;;
54368;SDS011;40266;52.434;17.056;2023-08-01T02:40:02;7.60;;;3.70;;
54368;SDS011;40266;52.434;17.056;2023-08-01T02:42:50;8.50;;;3.40;;
54368;SDS011;40266;52.434;17.056;2023-08-01T02:45:33;6.20;;;3.20;;
54368;SDS011;40266;52.434;17.056;2023-08-01T02:48:16;14.70;;;3.90;;
54368;SDS011;40266;52.434;17.056;2023-08-01T02:51:00;7.40;;;3.30;;
54368;SDS011;40266;52.434;17.056;2023-08-01T02:53:43;7.10;;;3.60;;
54368;SDS011;40266;52.434;17.056;2023-08-01T02:56:26;7.90;;;3.50;;
54368;SDS011;40266;52.434;17.056;2023-08-01T02:59:10;12.00;;;4.50;;
54368;SDS011;40266;52.434;17.056;2023-08-01T03:01:54;12.40;;;4.00;;
54368;SDS011;40266;52.434;17.056;2023-08-01T03:04:37;8.30;;;3.80;;
54368;SDS011;40266;52.434;17.056;2023-08-01T03:07:28;7.30;;;4.40;;
54368;SDS011;40266;52.434;17.056;2023-08-01T03:10:12;9.20;;;4.60;;
54368;SDS011;40266;52.434;17.056;2023-08-01T03:13:05;8.60;;;4.40;;
54368;SDS011;40266;52.434;17.056;2023-08-01T03:15:49;9.10;;;3.60;;
54368;SDS011;40266;52.434;17.056;2023-08-01T03:18:32;7.00;;;3.70;;
54368;SDS011;40266;52.434;17.056;2023-08-01T03:21:15;8.10;;;3.70;;
54368;SDS011;40266;52.434;17.056;2023-08-01T03:23:59;9.30;;;3.80;;
54368;SDS011;40266;52.434;17.056;2023-08-01T03:26:43;5.40;;;3.20;;
54368;SDS011;40266;52.434;17.056;2023-08-01T03:29:26;9.30;;;3.70;;
54368;SDS011;40266;52.434;17.056;2023-08-01T03:32:09;9.50;;;3.60;;
54368;SDS011;40266;52.434;17.056;2023-08-01T03:34:52;7.50;;;3.70;;
54368;SDS011;40266;52.434;17.056;2023-08-01T03:37:35;12.80;;;4.40;;
54368;SDS011;40266;52.434;17.056;2023-08-01T03:40:20;10.30;;;4.30;;
54368;SDS011;40266;52.434;17.056;2023-08-01T03:43:04;7.50;;;3.80;;
54368;SDS011;40266;52.434;17.056;2023-08-01T03:45:49;9.20;;;3.60;;
54368;SDS011;40266;52.434;17.056;2023-08-01T03:48:33;10.40;;;3.90;;
54368;SDS011;40266;52.434;17.056;2023-08-01T03:51:16;10.50;;;4.10;;
54368;SDS011;40266;52.434;17.056;2023-08-01T03:54:02;12.10;;;4.80;;
54368;SDS011;40266;52.434;17.056;2023-08-01T03:56:55;11.40;;;4.40;;
54368;SDS011;40266;52.434;17.056;2023-08-01T03:59:38;5.80;;;3.70;;
54368;SDS011;40266;52.434;17.056;2023-08-01T04:02:21;10.10;;;4.50;;
54368;SDS011;40266;52.434;17.056;2023-08-01T04:05:06;8.70;;;3.80;;
54368;SDS011;40266;52.434;17.056;2023-08-01T04:07:50;11.00;;;4.60;;
54368;SDS011;40266;52.434;17.056;2023-08-01T04:10:33;10.40;;;4.40;;
54368;SDS011;40266;52.434;17.056;2023-08-01T04:13:16;8.30;;;4.30;;
54368;SDS011;40266;52.434;17.056;2023-08-01T04:16:00;7.40;;;4.30;;
54368;SDS011;40266;52.434;17.056;2023-08-01T04:18:43;13.20;;;4.90;;
54368;SDS011;40266;52.434;17.056;2023-08-01T04:21:27;8.60;;;4.80;;
54368;SDS011;40266;52.434;17.056;2023-08-01T04:24:10;11.50;;;5.70;;
54368;SDS011;40266;52.434;17.056;2023-08-01T04:26:53;7.90;;;4.60;;
54368;SDS011;40266;52.434;17.056;2023-08-01T04:29:37;13.10;;;5.00;;
54368;SDS011;40266;52.434;17.056;2023-08-01T04:32:20;10.80;;;5.40;;
54368;SDS011;40266;52.434;17.056;2023-08-01T04:35:03;12.50;;;5.30;;
54368;SDS011;40266;52.434;17.056;2023-08-01T04:37:47;13.80;;;5.50;;
54368;SDS011;40266;52.434;17.056;2023-08-01T04:40:31;12.10;;;5.50;;
54368;SDS011;40266;52.434;17.056;2023-08-01T04:43:15;9.90;;;5.40;;
54368;SDS011;40266;52.434;17.056;2023-08-01T04:45:58;7.90;;;5.40;;
54368;SDS011;40266;52.434;17.056;2023-08-01T04:48:41;11.00;;;5.50;;
54368;SDS011;40266;52.434;17.056;2023-08-01T04:51:25;11.40;;;5.50;;
54368;SDS011;40266;52.434;17.056;2023-08-01T04:54:08;13.70;;;5.20;;
54368;SDS011;40266;52.434;17.056;2023-08-01T04:56:51;11.60;;;4.90;;
54368;SDS011;40266;52.434;17.056;2023-08-01T04:59:34;11.50;;;5.50;;
54368;SDS011;40266;52.434;17.056;2023-08-01T05:02:18;10.00;;;5.70;;
54368;SDS011;40266;52.434;17.056;2023-08-01T05:05:01;10.00;;;4.80;;
54368;SDS011;40266;52.434;17.056;2023-08-01T05:07:44;12.20;;;5.30;;
54368;SDS011;40266;52.434;17.056;2023-08-01T05:10:28;11.80;;;5.30;;
54368;SDS011;40266;52.434;17.056;2023-08-01T05:13:11;9.20;;;4.90;;
54368;SDS011;40266;52.434;17.056;2023-08-01T05:15:55;9.20;;;5.10;;
54368;SDS011;40266;52.434;17.056;2023-08-01T05:18:38;16.20;;;6.10;;
54368;SDS011;40266;52.434;17.056;2023-08-01T05:21:21;11.70;;;5.10;;
54368;SDS011;40266;52.434;17.056;2023-08-01T05:24:04;11.30;;;5.10;;
54368;SDS011;40266;52.434;17.056;2023-08-01T05:26:48;9.70;;;5.20;;
54368;SDS011;40266;52.434;17.056;2023-08-01T05:29:31;9.20;;;5.20;;
54368;SDS011;40266;52.434;17.056;2023-08-01T05:32:14;15.70;;;5.40;;
54368;SDS011;40266;52.434;17.056;2023-08-01T05:34:57;15.30;;;6.00;;
54368;SDS011;40266;52.434;17.056;2023-08-01T05:37:41;13.40;;;5.30;;
54368;SDS011;40266;52.434;17.056;2023-08-01T05:40:24;11.80;;;4.80;;
54368;SDS011;40266;52.434;17.056;2023-08-01T05:43:07;11.50;;;5.10;;
54368;SDS011;40266;52.434;17.056;2023-08-01T05:45:51;8.90;;;5.10;;
54368;SDS011;40266;52.434;17.056;2023-08-01T05:48:35;10.40;;;5.00;;
54368;SDS011;40266;52.434;17.056;2023-08-01T05:51:18;12.00;;;4.80;;
54368;SDS011;40266;52.434;17.056;2023-08-01T05:54:01;10.20;;;5.30;;
54368;SDS011;40266;52.434;17.056;2023-08-01T05:56:44;8.40;;;4.90;;
54368;SDS011;40266;52.434;17.056;2023-08-01T05:59:28;11.90;;;4.60;;
54368;SDS011;40266;52.434;17.056;2023-08-01T06:02:11;10.70;;;4.60;;
54368;SDS011;40266;52.434;17.056;2023-08-01T06:04:54;6.10;;;4.00;;
54368;SDS011;40266;52.434;17.056;2023-08-01T06:07:37;8.60;;;4.70;;
54368;SDS011;40266;52.434;17.056;2023-08-01T06:10:21;10.10;;;4.80;;
54368;SDS011;40266;52.434;17.056;2023-08-01T06:13:05;9.60;;;4.70;;
54368;SDS011;40266;52.434;17.056;2023-08-01T06:15:48;11.90;;;5.00;;
54368;SDS011;40266;52.434;17.056;2023-08-01T06:18:31;13.10;;;5.40;;
54368;SDS011;40266;52.434;17.056;2023-08-01T06:21:14;13.00;;;5.70;;
54368;SDS011;40266;52.434;17.056;2023-08-01T06:23:57;11.20;;;5.40;;
54368;SDS011;40266;52.434;17.056;2023-08-01T06:26:41;11.00;;;4.70;;
54368;SDS011;40266;52.434;17.056;2023-08-01T06:29:24;10.00;;;5.10;;
54368;SDS011;40266;52.434;17.056;2023-08-01T06:32:08;10.60;;;5.80;;
54368;SDS011;40266;52.434;17.056;2023-08-01T06:34:51;10.20;;;5.50;;
54368;SDS011;40266;52.434;17.056;2023-08-01T06:37:35;11.70;;;5.10;;
54368;SDS011;40266;52.434;17.056;2023-08-01T06:40:18;9.20;;;4.90;;
54368;SDS011;40266;52.434;17.056;2023-08-01T06:43:01;8.70;;;4.50;;
54368;SDS011;40266;52.434;17.056;2023-08-01T06:45:44;9.40;;;5.40;;
54368;SDS011;40266;52.434;17.056;2023-08-01T06:48:29;8.40;;;5.40;;
54368;SDS011;40266;52.434;17.056;2023-08-01T06:51:13;11.40;;;5.00;;
54368;SDS011;40266;52.434;17.056;2023-08-01T06:53:56;10.70;;;5.50;;
54368;SDS011;40266;52.434;17.056;2023-08-01T06:56:39;9.10;;;5.00;;
54368;SDS011;40266;52.434;17.056;2023-08-01T06:59:22;12.70;;;5.30;;
54368;SDS011;40266;52.434;17.056;2023-08-01T07:02:05;12.20;;;5.80;;
54368;SDS011;40266;52.434;17.056;2023-08-01T07:04:50;9.50;;;5.10;;
54368;SDS011;40266;52.434;17.056;2023-08-01T07:07:33;11.20;;;5.20;;
54368;SDS011;40266;52.434;17.056;2023-08-01T07:10:17;9.20;;;5.50;;
54368;SDS011;40266;52.434;17.056;2023-08-01T07:13:01;11.90;;;5.60;;
54368;SDS011;40266;52.434;17.056;2023-08-01T07:15:47;11.00;;;5.30;;
54368;SDS011;40266;52.434;17.056;2023-08-01T07:18:31;9.20;;;5.20;;
54368;SDS011;40266;52.434;17.056;2023-08-01T07:21:15;8.60;;;4.90;;
54368;SDS011;40266;52.434;17.056;2023-08-01T07:23:57;9.60;;;5.30;;
54368;SDS011;40266;52.434;17.056;2023-08-01T07:26:40;13.30;;;5.40;;
54368;SDS011;40266;52.434;17.056;2023-08-01T07:29:24;9.10;;;4.90;;
54368;SDS011;40266;52.434;17.056;2023-08-01T07:32:08;9.90;;;5.30;;
54368;SDS011;40266;52.434;17.056;2023-08-01T07:34:51;12.80;;;5.70;;
54368;SDS011;40266;52.434;17.056;2023-08-01T07:37:35;8.70;;;5.00;;
54368;SDS011;40266;52.434;17.056;2023-08-01T07:40:20;9.00;;;4.40;;
54368;SDS011;40266;52.434;17.056;2023-08-01T07:43:04;9.80;;;5.90;;
54368;SDS011;40266;52.434;17.056;2023-08-01T07:45:47;9.40;;;5.00;;
54368;SDS011;40266;52.434;17.056;2023-08-01T07:48:33;13.20;;;5.30;;
54368;SDS011;40266;52.434;17.056;2023-08-01T07:51:20;10.90;;;5.20;;
54368;SDS011;40266;52.434;17.056;2023-08-01T07:54:04;9.00;;;4.70;;
54368;SDS011;40266;52.434;17.056;2023-08-01T07:56:47;12.00;;;4.50;;
54368;SDS011;40266;52.434;17.056;2023-08-01T07:59:31;11.50;;;5.10;;
54368;SDS011;40266;52.434;17.056;2023-08-01T08:02:14;8.10;;;4.20;;
54368;SDS011;40266;52.434;17.056;2023-08-01T08:04:57;9.60;;;5.00;;
54368;SDS011;40266;52.434;17.056;2023-08-01T08:07:40;10.50;;;5.20;;
54368;SDS011;40266;52.434;17.056;2023-08-01T08:10:24;11.80;;;4.50;;
54368;SDS011;40266;52.434;17.056;2023-08-01T08:13:07;7.20;;;4.20;;
54368;SDS011;40266;52.434;17.056;2023-08-01T08:15:50;11.20;;;4.70;;
54368;SDS011;40266;52.434;17.056;2023-08-01T08:18:33;7.10;;;4.30;;
54368;SDS011;40266;52.434;17.056;2023-08-01T08:21:18;8.30;;;4.40;;
54368;SDS011;40266;52.434;17.056;2023-08-01T08:24:01;8.70;;;5.10;;
54368;SDS011;40266;52.434;17.056;2023-08-01T08:26:45;10.40;;;4.30;;
54368;SDS011;40266;52.434;17.056;2023-08-01T08:29:28;9.90;;;5.50;;
54368;SDS011;40266;52.434;17.056;2023-08-01T08:32:16;9.30;;;4.30;;
54368;SDS011;40266;52.434;17.056;2023-08-01T08:34:59;9.30;;;4.40;;
54368;SDS011;40266;52.434;17.056;2023-08-01T08:37:42;7.50;;;4.10;;
54368;SDS011;40266;52.434;17.056;2023-08-01T08:40:27;8.10;;;4.60;;
54368;SDS011;40266;52.434;17.056;2023-08-01T08:43:10;13.20;;;4.90;;
54368;SDS011;40266;52.434;17.056;2023-08-01T08:45:56;8.80;;;4.20;;
54368;SDS011;40266;52.434;17.056;2023-08-01T08:48:40;7.60;;;4.10;;
54368;SDS011;40266;52.434;17.056;2023-08-01T08:51:26;11.40;;;4.60;;
54368;SDS011;40266;52.434;17.056;2023-08-01T08:54:10;4.70;;;3.50;;
54368;SDS011;40266;52.434;17.056;2023-08-01T08:56:54;10.00;;;4.40;;
54368;SDS011;40266;52.434;17.056;2023-08-01T08:59:38;8.30;;;4.00;;
54368;SDS011;40266;52.434;17.056;2023-08-01T09:02:23;6.80;;;4.40;;
54368;SDS011;40266;52.434;17.056;2023-08-01T09:05:07;8.40;;;4.00;;
54368;SDS011;40266;52.434;17.056;2023-08-01T09:07:51;8.00;;;4.00;;
54368;SDS011;40266;52.434;17.056;2023-08-01T09:10:38;6.50;;;3.80;;
54368;SDS011;40266;52.434;17.056;2023-08-01T09:13:21;4.90;;;3.70;;
54368;SDS011;40266;52.434;17.056;2023-08-01T09:16:04;6.40;;;3.70;;
54368;SDS011;40266;52.434;17.056;2023-08-01T09:18:52;4.80;;;3.40;;
54368;SDS011;40266;52.434;17.056;2023-08-01T09:21:36;7.60;;;3.70;;
54368;SDS011;40266;52.434;17.056;2023-08-01T09:24:22;6.10;;;3.00;;
54368;SDS011;40266;52.434;17.056;2023-08-01T09:27:05;15.80;;;5.00;;
54368;SDS011;40266;52.434;17.056;2023-08-01T09:29:51;5.60;;;3.40;;
54368;SDS011;40266;52.434;17.056;2023-08-01T09:32:35;5.40;;;3.70;;
54368;SDS011;40266;52.434;17.056;2023-08-01T09:35:18;7.70;;;4.30;;
54368;SDS011;40266;52.434;17.056;2023-08-01T09:38:01;6.80;;;3.70;;
54368;SDS011;40266;52.434;17.056;2023-08-01T09:40:44;4.30;;;3.20;;
54368;SDS011;40266;52.434;17.056;2023-08-01T09:43:35;9.10;;;3.60;;
54368;SDS011;40266;52.434;17.056;2023-08-01T09:46:19;8.90;;;4.10;;
54368;SDS011;40266;52.434;17.056;2023-08-01T09:49:09;8.70;;;3.90;;
54368;SDS011;40266;52.434;17.056;2023-08-01T09:51:53;7.70;;;4.30;;
54368;SDS011;40266;52.434;17.056;2023-08-01T09:54:37;8.40;;;3.20;;
54368;SDS011;40266;52.434;17.056;2023-08-01T09:57:20;5.30;;;3.60;;
54368;SDS011;40266;52.434;17.056;2023-08-01T10:00:05;4.30;;;3.60;;
54368;SDS011;40266;52.434;17.056;2023-08-01T10:02:54;8.70;;;4.40;;
54368;SDS011;40266;52.434;17.056;2023-08-01T10:05:40;5.80;;;3.40;;
54368;SDS011;40266;52.434;17.056;2023-08-01T10:08:25;8.50;;;3.70;;
54368;SDS011;40266;52.434;17.056;2023-08-01T10:11:12;6.70;;;3.00;;
54368;SDS011;40266;52.434;17.056;2023-08-01T10:13:56;4.40;;;3.40;;
54368;SDS011;40266;52.434;17.056;2023-08-01T10:16:40;6.20;;;3.70;;
54368;SDS011;40266;52.434;17.056;2023-08-01T10:19:25;6.00;;;3.10;;
54368;SDS011;40266;52.434;17.056;2023-08-01T10:22:10;6.50;;;3.50;;
54368;SDS011;40266;52.434;17.056;2023-08-01T10:24:54;6.90;;;3.40;;
54368;SDS011;40266;52.434;17.056;2023-08-01T10:27:39;7.60;;;4.30;;
54368;SDS011;40266;52.434;17.056;2023-08-01T10:30:28;6.20;;;3.40;;
54368;SDS011;40266;52.434;17.056;2023-08-01T10:33:12;6.10;;;3.70;;
54368;SDS011;40266;52.434;17.056;2023-08-01T10:35:57;6.80;;;4.20;;
54368;SDS011;40266;52.434;17.056;2023-08-01T10:38:53;7.30;;;3.80;;
54368;SDS011;40266;52.434;17.056;2023-08-01T10:41:37;6.30;;;4.00;;
54368;SDS011;40266;52.434;17.056;2023-08-01T10:44:21;6.00;;;4.10;;
54368;SDS011;40266;52.434;17.056;2023-08-01T10:47:04;6.30;;;4.40;;
54368;SDS011;40266;52.434;17.056;2023-08-01T10:49:48;9.00;;;5.00;;
54368;SDS011;40266;52.434;17.056;2023-08-01T10:52:31;10.80;;;5.00;;
54368;SDS011;40266;52.434;17.056;2023-08-01T10:55:15;8.70;;;4.70;;
54368;SDS011;40266;52.434;17.056;2023-08-01T10:58:00;9.20;;;5.90;;
54368;SDS011;40266;52.434;17.056;2023-08-01T11:00:43;10.00;;;5.90;;
54368;SDS011;40266;52.434;17.056;2023-08-01T11:03:38;9.60;;;5.80;;
54368;SDS011;40266;52.434;17.056;2023-08-01T11:06:25;11.60;;;6.10;;
54368;SDS011;40266;52.434;17.056;2023-08-01T11:09:15;9.90;;;6.20;;
54368;SDS011;40266;52.434;17.056;2023-08-01T11:11:59;14.20;;;7.20;;
54368;SDS011;40266;52.434;17.056;2023-08-01T11:14:43;18.60;;;8.10;;
54368;SDS011;40266;52.434;17.056;2023-08-01T11:17:26;13.90;;;7.40;;
54368;SDS011;40266;52.434;17.056;2023-08-01T11:20:10;13.60;;;8.10;;
54368;SDS011;40266;52.434;17.056;2023-08-01T11:22:58;14.50;;;8.00;;
54368;SDS011;40266;52.434;17.056;2023-08-01T11:25:48;13.10;;;7.60;;
54368;SDS011;40266;52.434;17.056;2023-08-01T11:28:33;13.60;;;8.00;;
54368;SDS011;40266;52.434;17.056;2023-08-01T11:31:17;15.20;;;9.00;;
54368;SDS011;40266;52.434;17.056;2023-08-01T11:34:02;16.50;;;8.70;;
54368;SDS011;40266;52.434;17.056;2023-08-01T11:36:46;12.70;;;7.90;;
54368;SDS011;40266;52.434;17.056;2023-08-01T11:39:29;13.20;;;9.00;;
54368;SDS011;40266;52.434;17.056;2023-08-01T11:42:16;15.40;;;8.50;;
54368;SDS011;40266;52.434;17.056;2023-08-01T11:45:09;14.60;;;8.80;;
54368;SDS011;40266;52.434;17.056;2023-08-01T11:47:54;14.20;;;8.80;;
54368;SDS011;40266;52.434;17.056;2023-08-01T11:50:37;16.20;;;8.50;;
54368;SDS011;40266;52.434;17.056;2023-08-01T11:53:22;18.60;;;8.70;;
54368;SDS011;40266;52.434;17.056;2023-08-01T11:56:06;14.60;;;8.40;;
54368;SDS011;40266;52.434;17.056;2023-08-01T11:58:49;16.30;;;9.10;;
54368;SDS011;40266;52.434;17.056;2023-08-01T12:01:37;18.80;;;9.80;;
54368;SDS011;40266;52.434;17.056;2023-08-01T12:04:23;12.80;;;7.70;;
54368;SDS011;40266;52.434;17.056;2023-08-01T12:07:14;7.50;;;4.10;;
54368;SDS011;40266;52.434;17.056;2023-08-01T12:09:59;7.40;;;2.50;;
54368;SDS011;40266;52.434;17.056;2023-08-01T12:12:48;4.50;;;2.20;;
54368;SDS011;40266;52.434;17.056;2023-08-01T12:15:31;3.70;;;2.00;;
54368;SDS011;40266;52.434;17.056;2023-08-01T12:18:25;4.30;;;1.90;;
54368;SDS011;40266;52.434;17.056;2023-08-01T12:21:15;3.10;;;1.80;;
54368;SDS011;40266;52.434;17.056;2023-08-01T12:23:59;2.80;;;2.20;;
54368;SDS011;40266;52.434;17.056;2023-08-01T12:26:42;2.90;;;2.00;;
54368;SDS011;40266;52.434;17.056;2023-08-01T12:29:27;2.10;;;2.00;;
54368;SDS011;40266;52.434;17.056;2023-08-01T12:32:10;4.10;;;1.90;;
54368;SDS011;40266;52.434;17.056;2023-08-01T12:34:53;2.40;;;2.10;;
54368;SDS011;40266;52.434;17.056;2023-08-01T12:37:36;3.80;;;2.30;;
54368;SDS011;40266;52.434;17.056;2023-08-01T12:40:20;3.60;;;2.00;;
54368;SDS011;40266;52.434;17.056;2023-08-01T12:43:03;3.60;;;2.30;;
54368;SDS011;40266;52.434;17.056;2023-08-01T12:45:48;3.40;;;2.40;;
54368;SDS011;40266;52.434;17.056;2023-08-01T12:48:35;2.70;;;1.90;;
54368;SDS011;40266;52.434;17.056;2023-08-01T12:51:19;5.90;;;2.40;;
54368;SDS011;40266;52.434;17.056;2023-08-01T12:54:02;4.70;;;2.80;;
54368;SDS011;40266;52.434;17.056;2023-08-01T12:56:45;4.00;;;2.30;;
54368;SDS011;40266;52.434;17.056;2023-08-01T12:59:29;2.70;;;2.30;;
54368;SDS011;40266;52.434;17.056;2023-08-01T13:02:12;2.80;;;2.30;;
54368;SDS011;40266;52.434;17.056;2023-08-01T13:04:56;3.60;;;2.40;;
54368;SDS011;40266;52.434;17.056;2023-08-01T13:07:41;2.60;;;2.20;;
54368;SDS011;40266;52.434;17.056;2023-08-01T13:10:24;7.70;;;2.90;;
54368;SDS011;40266;52.434;17.056;2023-08-01T13:13:07;6.20;;;2.60;;
54368;SDS011;40266;52.434;17.056;2023-08-01T13:15:50;3.90;;;3.00;;
54368;SDS011;40266;52.434;17.056;2023-08-01T13:18:34;6.20;;;3.40;;
54368;SDS011;40266;52.434;17.056;2023-08-01T13:21:18;4.20;;;2.60;;
54368;SDS011;40266;52.434;17.056;2023-08-01T13:24:01;4.80;;;3.00;;
54368;SDS011;40266;52.434;17.056;2023-08-01T13:26:48;3.70;;;2.50;;
54368;SDS011;40266;52.434;17.056;2023-08-01T13:29:32;3.90;;;3.20;;
54368;SDS011;40266;52.434;17.056;2023-08-01T13:32:15;6.30;;;2.80;;
54368;SDS011;40266;52.434;17.056;2023-08-01T13:34:59;10.50;;;3.50;;
54368;SDS011;40266;52.434;17.056;2023-08-01T13:37:43;3.10;;;2.20;;
54368;SDS011;40266;52.434;17.056;2023-08-01T13:40:27;2.50;;;2.20;;
54368;SDS011;40266;52.434;17.056;2023-08-01T13:43:15;2.40;;;2.20;;
54368;SDS011;40266;52.434;17.056;2023-08-01T13:45:59;7.00;;;2.90;;
54368;SDS011;40266;52.434;17.056;2023-08-01T13:48:46;4.00;;;2.50;;
54368;SDS011;40266;52.434;17.056;2023-08-01T13:51:33;5.80;;;2.30;;
54368;SDS011;40266;52.434;17.056;2023-08-01T13:54:17;3.70;;;2.60;;
54368;SDS011;40266;52.434;17.056;2023-08-01T13:57:00;3.90;;;2.20;;
54368;SDS011;40266;52.434;17.056;2023-08-01T13:59:44;2.90;;;2.40;;
54368;SDS011;40266;52.434;17.056;2023-08-01T14:02:52;2.90;;;2.30;;
54368;SDS011;40266;52.434;17.056;2023-08-01T14:05:36;4.70;;;2.30;;
54368;SDS011;40266;52.434;17.056;2023-08-01T14:08:19;5.90;;;2.50;;
54368;SDS011;40266;52.434;17.056;2023-08-01T14:11:03;5.30;;;2.90;;
54368;SDS011;40266;52.434;17.056;2023-08-01T14:13:47;3.10;;;2.20;;
54368;SDS011;40266;52.434;17.056;2023-08-01T14:16:32;2.30;;;2.10;;
54368;SDS011;40266;52.434;17.056;2023-08-01T14:19:15;3.90;;;2.10;;
54368;SDS011;40266;52.434;17.056;2023-08-01T14:21:59;7.60;;;2.30;;
54368;SDS011;40266;52.434;17.056;2023-08-01T14:24:42;3.20;;;2.50;;
54368;SDS011;40266;52.434;17.056;2023-08-01T14:27:26;4.10;;;2.60;;
54368;SDS011;40266;52.434;17.056;2023-08-01T14:30:09;3.50;;;2.70;;
54368;SDS011;40266;52.434;17.056;2023-08-01T14:33:02;4.60;;;2.60;;
54368;SDS011;40266;52.434;17.056;2023-08-01T14:35:47;2.70;;;2.50;;
54368;SDS011;40266;52.434;17.056;2023-08-01T14:38:30;2.30;;;1.90;;
54368;SDS011;40266;52.434;17.056;2023-08-01T14:41:13;3.10;;;2.30;;
54368;SDS011;40266;52.434;17.056;2023-08-01T14:44:18;3.10;;;1.90;;
54368;SDS011;40266;52.434;17.056;2023-08-01T14:47:00;5.00;;;2.50;;
54368;SDS011;40266;52.434;17.056;2023-08-01T14:49:44;6.20;;;2.40;;
54368;SDS011;40266;52.434;17.056;2023-08-01T14:52:27;7.00;;;3.10;;
54368;SDS011;40266;52.434;17.056;2023-08-01T14:55:13;4.50;;;2.90;;
54368;SDS011;40266;52.434;17.056;2023-08-01T14:57:55;6.00;;;2.60;;
54368;SDS011;40266;52.434;17.056;2023-08-01T15:00:38;3.50;;;3.00;;
54368;SDS011;40266;52.434;17.056;2023-08-01T15:03:23;4.50;;;2.90;;
54368;SDS011;40266;52.434;17.056;2023-08-01T15:06:07;6.60;;;2.70;;
54368;SDS011;40266;52.434;17.056;2023-08-01T15:08:51;6.10;;;2.90;;
54368;SDS011;40266;52.434;17.056;2023-08-01T15:11:35;3.60;;;2.50;;
54368;SDS011;40266;52.434;17.056;2023-08-01T15:14:18;3.90;;;2.40;;
54368;SDS011;40266;52.434;17.056;2023-08-01T15:17:03;7.20;;;2.60;;
54368;SDS011;40266;52.434;17.056;2023-08-01T15:19:47;5.30;;;2.20;;
54368;SDS011;40266;52.434;17.056;2023-08-01T15:22:31;3.70;;;2.30;;
54368;SDS011;40266;52.434;17.056;2023-08-01T15:25:13;3.00;;;2.10;;
54368;SDS011;40266;52.434;17.056;2023-08-01T15:27:57;3.60;;;1.50;;
54368;SDS011;40266;52.434;17.056;2023-08-01T15:30:40;5.80;;;2.00;;
54368;SDS011;40266;52.434;17.056;2023-08-01T15:33:23;2.20;;;1.30;;
54368;SDS011;40266;52.434;17.056;2023-08-01T15:36:07;1.70;;;0.90;;
54368;SDS011;40266;52.434;17.056;2023-08-01T15:38:52;1.60;;;1.00;;
54368;SDS011;40266;52.434;17.056;2023-08-01T15:41:35;2.20;;;0.80;;
54368;SDS011;40266;52.434;17.056;2023-08-01T15:44:20;1.30;;;1.20;;
54368;SDS011;40266;52.434;17.056;2023-08-01T15:47:04;2.10;;;1.30;;
54368;SDS011;40266;52.434;17.056;2023-08-01T15:49:49;1.60;;;0.80;;
54368;SDS011;40266;52.434;17.056;2023-08-01T15:52:33;1.90;;;1.70;;
54368;SDS011;40266;52.434;17.056;2023-08-01T15:55:17;2.70;;;1.30;;
54368;SDS011;40266;52.434;17.056;2023-08-01T15:58:00;3.50;;;1.10;;
54368;SDS011;40266;52.434;17.056;2023-08-01T16:00:43;1.90;;;1.20;;
54368;SDS011;40266;52.434;17.056;2023-08-01T16:03:27;2.50;;;1.40;;
54368;SDS011;40266;52.434;17.056;2023-08-01T16:06:11;1.60;;;1.40;;
54368;SDS011;40266;52.434;17.056;2023-08-01T16:08:56;4.00;;;1.50;;
54368;SDS011;40266;52.434;17.056;2023-08-01T16:11:39;2.10;;;1.20;;